Bluegrove, Texas
Current Conditions -  °F | °C
As of 6:55 PM on Sunday 23 Nov 2014 (Local Time) from KCWC Reporting Station
Overcast Overcast  
Wind Chill: 51°   Ceiling: 6000
Heat Index: 51°   Visibility: 10mi
Dew Point: 38°   Wind: 24mph
Humidity: 60%   Direction: 320°NW
Pressure: 29.74"   Gusts: 36mph
Location:  33.67°N, 98.23°W
Report Text: KCWC 240055Z AUTO 32021G31KT 10SM OVC060 11/03 A2974 RMK AO2 T01050031
Loading
Personal Weather Stations






























Interactive Weather Map New forecast layout! Learn more

10-Day Weather Forecast

Advertisements
Track Severe Weather on mobile